Kesley, IA

3:20 AM CST on March 04, 2015 (GMT -0600)
Beeds Addition | Change Station
CLOSE
Current Station
Personal Weather Station
Location: Hampton, IA
Elevation: 1145 ft
Nearby Weather Stations

Elev 1145 ft 42.74 °N, 93.20 °W | Updated 10 seconds ago

Partly Cloudy
Partly Cloudy
7.3 °F
Feels Like -11 °F
N
17.4
Wind Variable Wind from North
Gusts 22.1 mph

Today
High -- | Low -- °F
--% Chance of Precip.
Yesterday
High -- | Low -- °F
Precip. -- in
6:42 AM 6:04 PM
Waxing Gibbous, 98% visible
Pressure 30.12 in
Visibility 10.0 miles
Clouds Overcast 10000 ft
Windchill -11 °F
Dew Point -11 °F
Humidity 42%
Rainfall 0.00 in
Snow Depth Not available.
UV 0 out of 12
Pollen .50 out of 12
Air Quality Not available.
Flu Activity Not available.
METAR KALO 040854Z 32020G28KT 10SM OVC100 M12/M17 A3008 RMK AO2 PK WND 31028/0847 SLP199 T11221172 51019 $

More Conditions Fewer Conditions

Pressure 30.12 in
Visibility 10.0 miles
Clouds Overcast 10000 ft
Windchill -11 °F
Dew Point -11 °F
Humidity 42%
Rainfall 0.00 in
Snow Depth Not available.
UV 0 out of 12
Pollen .50 out of 12
Air Quality Not available.
Flu Activity Not available.
METAR KALO 040854Z 32020G28KT 10SM OVC100 M12/M17 A3008 RMK AO2 PK WND 31028/0847 SLP199 T11221172 51019 $

More Conditions Fewer Conditions

10-Day Weather Forecast

Almanac

Astronomy

Mar. 04, 2015 Rise Set
Actual Time
Civil Twilight
Nautical Twilight
Astronomical Twilight
Moon
Length of Visible Light
Length of Day
Tomorrow will be .
, % of the Moon is Illuminated

Today's Extremes

State Highs State Lows

Community

WunderPhotos

Upload Photos

1,802,419 photos uploaded!

WunderBlogs® & News

Nearby

Air Quality

  Air Quality AQ Index Pollutant
Not available.

Snow Depth

Station Depth Elevation

Earthquake Activity

City Distance Mag. Time & Date
Minimum magnitude displayed is 2.5.

Coastal Water Temperatures

Place Temperature

Nearby Weather Stations